Weather at Freebird Field

Public forecast

Using degrees Fahrenheit for public forecast. Weather courtesy of forecast.io.

Closest aviation weather report (METAR) to Freebird Field

Report is more than 6 hours old.

Closest report is Lafayette Regional Airport, 8.9 nm (16.5 km) ENE. Retrieved 2022/09/17 18:53 UTC (14 days ago):

KLFT 171853Z 10SM BKN041 33/22 A3004 RMK AO2 SLP171 T03280217

Closest aviation forecast (TAF) to Freebird Field

Forecast is more than 12 hours old.

Closest forecast is Lafayette Regional Airport, 8.9 nm (16.5 km) ENE. Retrieved 2022/09/17 18:22 UTC (14 days ago):

TAF KLFT 171720Z 1718/1818 08007KT P6SM FEW250 FM180300 VRB03KT P6SM SKC